createdAt,value
2019-05-11T00:00:27.929Z,9.30
2019-05-11T00:02:57.391Z,9.30
2019-05-11T00:05:26.908Z,9.30
2019-05-11T00:07:56.381Z,9.40
2019-05-11T00:10:25.894Z,9.30
2019-05-11T00:12:55.379Z,9.30
2019-05-11T00:15:24.884Z,9.30
2019-05-11T00:17:54.369Z,9.30
2019-05-11T00:20:23.881Z,9.20
2019-05-11T00:22:53.405Z,9.30
2019-05-11T00:25:22.920Z,9.30
2019-05-11T00:27:52.399Z,9.30
2019-05-11T00:30:21.912Z,9.30
2019-05-11T00:32:51.396Z,9.30
2019-05-11T00:35:20.940Z,9.40
2019-05-11T00:37:50.428Z,9.40
2019-05-11T00:40:19.954Z,9.40
2019-05-11T00:42:49.460Z,9.40
2019-05-11T00:45:18.948Z,9.30
2019-05-11T00:47:48.464Z,9.30
2019-05-11T00:50:18.059Z,9.20
2019-05-11T00:52:47.572Z,9.20
2019-05-11T00:55:17.051Z,9.20
2019-05-11T00:57:46.588Z,9.20
2019-05-11T01:00:16.579Z,9.20
2019-05-11T01:02:46.103Z,9.10
2019-05-11T01:05:15.693Z,9.10
2019-05-11T01:07:45.199Z,9.10
2019-05-11T01:10:23.643Z,9.10
2019-05-11T01:12:45.854Z,9.10
2019-05-11T01:15:15.427Z,9.10
2019-05-11T01:17:44.942Z,9.20
2019-05-11T01:20:15.049Z,9.20
2019-05-11T01:22:44.540Z,9.20
2019-05-11T01:25:14.059Z,9.10
2019-05-11T01:27:43.575Z,9.10
2019-05-11T01:30:13.281Z,9.20
2019-05-11T01:32:42.780Z,9.20
2019-05-11T01:35:12.371Z,9.10
2019-05-11T01:37:41.888Z,9.20
2019-05-11T01:40:11.567Z,9.30
2019-05-11T01:42:41.101Z,9.20
2019-05-11T01:45:10.680Z,9.30
2019-05-11T01:47:40.191Z,9.30
2019-05-11T01:50:10.087Z,9.20
2019-05-11T01:52:39.599Z,9.30
2019-05-11T01:55:09.239Z,9.30
2019-05-11T01:57:38.774Z,9.20
2019-05-11T02:00:08.972Z,9.10
2019-05-11T02:02:38.486Z,9.10
2019-05-11T02:05:25.712Z,9.00
2019-05-11T02:07:55.252Z,9.10
2019-05-11T02:10:24.682Z,9.10
2019-05-11T02:12:54.191Z,9.10
2019-05-11T02:15:26.660Z,9.10
2019-05-11T02:17:56.156Z,9.10
2019-05-11T02:20:25.594Z,9.10
2019-05-11T02:22:55.076Z,9.10
2019-05-11T02:25:24.523Z,9.10
2019-05-11T02:27:54.002Z,9.10
2019-05-11T02:30:23.458Z,9.10
2019-05-11T02:32:52.947Z,9.10
2019-05-11T02:35:22.369Z,9.20
2019-05-11T02:37:51.848Z,9.10
2019-05-11T02:40:21.494Z,9.10
2019-05-11T02:42:50.956Z,9.10
2019-05-11T02:45:36.953Z,9.10
2019-05-11T02:48:06.454Z,9.10
2019-05-11T02:50:37.479Z,9.00
2019-05-11T02:53:07.312Z,9.00
2019-05-11T02:55:37.306Z,9.00
2019-05-11T02:58:08.600Z,9.10
2019-05-11T03:00:40.105Z,9.10
2019-05-11T03:03:09.567Z,9.10
2019-05-11T03:05:39.276Z,9.20
2019-05-11T03:08:08.753Z,9.20
2019-05-11T03:10:38.196Z,9.20
2019-05-11T03:13:07.720Z,9.20
2019-05-11T03:15:37.147Z,9.20
2019-05-11T03:18:06.647Z,9.10
2019-05-11T03:20:36.084Z,9.20
2019-05-11T03:23:05.643Z,9.20
2019-05-11T03:25:35.095Z,9.20
2019-05-11T03:28:04.539Z,9.20
2019-05-11T03:30:34.042Z,9.20
2019-05-11T03:33:03.523Z,9.30
2019-05-11T03:35:33.031Z,9.30
2019-05-11T03:38:02.451Z,9.20
2019-05-11T03:40:31.919Z,9.20
2019-05-11T03:43:01.352Z,9.20
2019-05-11T03:45:30.837Z,9.20
2019-05-11T03:48:00.307Z,9.20
2019-05-11T03:50:29.779Z,9.20
2019-05-11T03:52:59.221Z,9.20
2019-05-11T03:55:28.713Z,9.20
2019-05-11T03:57:58.166Z,9.20
2019-05-11T04:00:27.699Z,9.20
2019-05-11T04:02:57.257Z,9.20
2019-05-11T04:05:26.746Z,9.20
2019-05-11T04:07:56.204Z,9.20
2019-05-11T04:10:25.895Z,9.20
2019-05-11T04:12:55.501Z,9.20
2019-05-11T04:15:24.987Z,9.20
2019-05-11T04:17:54.441Z,9.20
2019-05-11T04:20:23.916Z,9.30
2019-05-11T04:22:53.380Z,9.30
2019-05-11T04:25:22.857Z,9.30
2019-05-11T04:27:52.322Z,9.30
2019-05-11T04:30:21.800Z,9.30
2019-05-11T04:32:51.252Z,9.40
2019-05-11T04:35:20.740Z,9.40
2019-05-11T04:37:50.189Z,9.40
2019-05-11T04:40:19.660Z,9.30
2019-05-11T04:42:55.234Z,9.30
2019-05-11T04:45:20.280Z,9.50
2019-05-11T04:47:49.745Z,9.50
2019-05-11T04:50:19.228Z,9.50
2019-05-11T04:52:48.703Z,9.50
2019-05-11T04:55:18.294Z,9.50
2019-05-11T04:57:47.737Z,9.50
2019-05-11T05:00:17.369Z,9.50
2019-05-11T05:02:46.808Z,9.60
2019-05-11T05:05:16.294Z,9.60
2019-05-11T05:07:48.793Z,9.60
2019-05-11T05:10:20.021Z,9.70
2019-05-11T05:12:51.590Z,9.80
2019-05-11T05:15:19.099Z,9.80
2019-05-11T05:17:48.609Z,9.80
2019-05-11T05:20:18.086Z,9.90
2019-05-11T05:22:47.541Z,9.90
2019-05-11T05:25:17.038Z,9.90
2019-05-11T05:27:46.507Z,9.90
2019-05-11T05:30:16.008Z,9.90
2019-05-11T05:32:45.496Z,9.90
2019-05-11T05:35:14.936Z,9.90
2019-05-11T05:37:44.420Z,10.00
2019-05-11T05:40:14.125Z,10.10
2019-05-11T05:42:43.612Z,10.10
2019-05-11T05:45:13.992Z,10.20
2019-05-11T05:47:43.496Z,10.20
2019-05-11T05:50:12.961Z,10.30
2019-05-11T05:52:42.460Z,10.30
2019-05-11T05:55:12.020Z,10.30
2019-05-11T05:57:41.601Z,10.40
2019-05-11T06:00:11.162Z,10.40
2019-05-11T06:02:40.665Z,10.50
2019-05-11T06:05:10.135Z,10.60
2019-05-11T06:07:39.643Z,10.70
2019-05-11T06:10:09.510Z,10.70
2019-05-11T06:12:38.987Z,10.70
2019-05-11T06:15:09.291Z,10.80
2019-05-11T06:17:38.814Z,10.80
2019-05-11T06:20:09.025Z,10.90
2019-05-11T06:22:38.762Z,11.00
2019-05-11T06:25:08.425Z,11.10
2019-05-11T06:27:37.915Z,11.20
2019-05-11T06:30:08.129Z,11.20
2019-05-11T06:32:37.712Z,11.30
2019-05-11T06:35:07.236Z,11.40
2019-05-11T06:37:36.716Z,11.50
2019-05-11T06:40:06.907Z,11.50
2019-05-11T06:42:36.398Z,11.50
2019-05-11T06:45:06.125Z,11.60
2019-05-11T06:47:35.611Z,11.60
2019-05-11T06:50:05.328Z,11.70
2019-05-11T06:52:34.827Z,11.70
2019-05-11T06:55:04.494Z,11.70
2019-05-11T06:57:33.969Z,11.70
2019-05-11T07:00:03.678Z,11.80
2019-05-11T07:02:33.178Z,11.70
2019-05-11T07:05:02.670Z,11.70
2019-05-11T07:07:46.539Z,11.80
2019-05-11T07:10:03.312Z,11.90
2019-05-11T07:12:32.776Z,12.00
2019-05-11T07:15:02.240Z,12.20
2019-05-11T07:17:31.724Z,12.40
2019-05-11T07:20:01.250Z,12.60
2019-05-11T07:22:30.724Z,12.90
2019-05-11T07:27:35.446Z,13.30
2019-05-11T07:30:05.461Z,13.40
2019-05-11T07:32:34.961Z,13.60
2019-05-11T07:35:04.560Z,13.80
2019-05-11T07:37:34.060Z,14.00
2019-05-11T07:40:03.588Z,13.90
2019-05-11T07:42:34.033Z,13.90
2019-05-11T07:45:03.536Z,13.90
2019-05-11T07:47:33.016Z,13.80
2019-05-11T07:50:02.492Z,13.70
2019-05-11T07:52:31.999Z,13.70
2019-05-11T07:55:08.484Z,13.60
2019-05-11T07:57:39.052Z,13.50
2019-05-11T08:00:10.723Z,13.50
2019-05-11T08:02:42.139Z,13.60
2019-05-11T08:05:12.511Z,13.70
2019-05-11T08:07:41.969Z,13.70
2019-05-11T08:10:11.858Z,13.60
2019-05-11T08:12:41.333Z,13.70
2019-05-11T08:15:13.615Z,13.80
2019-05-11T08:17:42.072Z,13.80
2019-05-11T08:20:11.770Z,14.00
2019-05-11T08:22:41.244Z,14.10
2019-05-11T08:25:10.732Z,13.90
2019-05-11T08:27:40.196Z,14.00
2019-05-11T08:30:10.982Z,14.20
2019-05-11T08:32:40.439Z,14.40
2019-05-11T08:35:10.120Z,14.80
2019-05-11T08:37:39.588Z,14.80
2019-05-11T08:40:09.375Z,14.90
2019-05-11T08:42:38.845Z,15.20
2019-05-11T08:45:19.551Z,15.30
2019-05-11T08:47:39.763Z,15.20
2019-05-11T08:50:09.842Z,15.30
2019-05-11T08:52:39.292Z,15.40
2019-05-11T08:55:08.895Z,15.30
2019-05-11T08:57:38.722Z,15.10
2019-05-11T09:00:13.237Z,15.10
2019-05-11T09:02:46.609Z,15.10
2019-05-11T09:05:15.144Z,15.20
2019-05-11T09:07:44.691Z,15.40
2019-05-11T09:10:14.296Z,15.40
2019-05-11T09:12:43.771Z,15.70
2019-05-11T09:15:28.046Z,15.90
2019-05-11T09:17:44.667Z,16.00
2019-05-11T09:20:14.283Z,16.00
2019-05-11T09:22:43.732Z,16.20
2019-05-11T09:25:13.227Z,16.60
2019-05-11T09:27:43.501Z,16.90
2019-05-11T09:30:13.362Z,16.90
2019-05-11T09:32:42.829Z,17.30
2019-05-11T09:35:12.340Z,17.10
2019-05-11T09:37:41.861Z,16.90
2019-05-11T09:40:11.587Z,17.00
2019-05-11T09:42:41.028Z,17.20
2019-05-11T09:45:10.635Z,16.90
2019-05-11T09:47:40.079Z,16.70
2019-05-11T09:50:09.658Z,16.50
2019-05-11T09:52:39.100Z,16.50
2019-05-11T09:55:09.783Z,16.60
2019-05-11T09:57:39.249Z,16.80
2019-05-11T10:00:09.312Z,16.90
2019-05-11T10:02:38.887Z,17.10
2019-05-11T10:05:09.238Z,16.90
2019-05-11T10:07:38.682Z,16.50
2019-05-11T10:10:09.181Z,16.30
2019-05-11T10:12:38.947Z,16.40
2019-05-11T10:15:09.020Z,16.00
2019-05-11T10:17:38.621Z,15.80
2019-05-11T10:20:09.136Z,15.50
2019-05-11T10:22:38.954Z,15.00
2019-05-11T10:25:09.215Z,14.50
2019-05-11T10:27:38.773Z,13.90
2019-05-11T10:30:09.565Z,13.40
2019-05-11T10:32:39.854Z,13.10
2019-05-11T10:35:09.424Z,13.00
2019-05-11T10:37:39.214Z,13.00
2019-05-11T10:40:09.579Z,13.40
2019-05-11T10:42:39.257Z,13.60
2019-05-11T10:45:09.385Z,13.90
2019-05-11T10:47:39.060Z,14.00
2019-05-11T10:50:08.869Z,14.10
2019-05-11T10:52:38.344Z,13.80
2019-05-11T10:55:08.809Z,13.40
2019-05-11T10:57:38.870Z,13.10
2019-05-11T11:00:09.926Z,13.00
2019-05-11T11:02:39.404Z,12.90
2019-05-11T11:05:08.957Z,12.80
2019-05-11T11:07:38.694Z,12.90
2019-05-11T11:10:08.959Z,12.90
2019-05-11T11:12:38.789Z,13.00
2019-05-11T11:15:08.848Z,13.10
2019-05-11T11:17:38.462Z,13.20
2019-05-11T11:20:09.262Z,13.30
2019-05-11T11:22:43.557Z,13.50
2019-05-11T11:25:09.913Z,13.70
2019-05-11T11:27:39.356Z,13.90
2019-05-11T11:30:09.352Z,14.20
2019-05-11T11:32:38.791Z,14.50
2019-05-11T11:35:14.777Z,14.70
2019-05-11T11:37:44.220Z,15.20
2019-05-11T11:40:13.905Z,15.50
2019-05-11T11:42:43.361Z,15.60
2019-05-11T11:45:13.059Z,15.90
2019-05-11T11:47:42.520Z,16.30
2019-05-11T11:50:13.173Z,16.80
2019-05-11T11:52:45.058Z,17.20
2019-05-11T11:55:13.852Z,17.70
2019-05-11T11:57:43.325Z,18.00
2019-05-11T12:00:12.976Z,18.50
2019-05-11T12:02:42.451Z,18.30
2019-05-11T12:05:12.021Z,18.30
2019-05-11T12:07:41.604Z,17.70
2019-05-11T12:10:11.316Z,17.30
2019-05-11T12:12:40.759Z,17.30
2019-05-11T12:15:10.460Z,17.70
2019-05-11T12:17:39.905Z,17.70
2019-05-11T12:20:09.485Z,17.90
2019-05-11T12:22:38.953Z,17.90
2019-05-11T12:25:08.618Z,17.80
2019-05-11T12:27:38.558Z,18.00
2019-05-11T12:30:09.485Z,17.70
2019-05-11T12:32:43.755Z,17.60
2019-05-11T12:35:13.558Z,17.30
2019-05-11T12:37:43.010Z,17.00
2019-05-11T12:40:12.697Z,16.90
2019-05-11T12:42:42.157Z,16.90
2019-05-11T12:45:11.840Z,17.10
2019-05-11T12:47:41.308Z,17.40
2019-05-11T12:50:11.313Z,17.50
2019-05-11T12:52:40.760Z,17.50
2019-05-11T12:55:10.574Z,17.50
2019-05-11T12:57:40.089Z,17.80
2019-05-11T13:00:09.740Z,18.30
2019-05-11T13:02:39.216Z,18.60
2019-05-11T13:05:09.690Z,18.70
2019-05-11T13:07:39.453Z,18.20
2019-05-11T13:10:09.212Z,18.00
2019-05-11T13:12:38.778Z,17.50
2019-05-11T13:15:09.204Z,17.50
2019-05-11T13:17:40.994Z,17.40
2019-05-11T13:20:12.877Z,17.40
2019-05-11T13:22:41.091Z,17.40
2019-05-11T13:25:10.825Z,17.40
2019-05-11T13:27:40.300Z,17.20
2019-05-11T13:30:10.281Z,17.20
2019-05-11T13:32:39.736Z,17.20
2019-05-11T13:35:09.451Z,17.30
2019-05-11T13:37:38.951Z,17.50
2019-05-11T13:40:08.743Z,17.40
2019-05-11T13:42:38.709Z,17.50
2019-05-11T13:45:08.619Z,17.80
2019-05-11T13:47:51.742Z,18.00
2019-05-11T13:50:09.475Z,18.00
2019-05-11T13:52:38.968Z,18.00
2019-05-11T13:55:09.321Z,18.00
2019-05-11T13:57:39.608Z,17.70
2019-05-11T14:00:10.579Z,17.70
2019-05-11T14:02:40.065Z,17.70
2019-05-11T14:05:09.804Z,17.70
2019-05-11T14:07:39.366Z,17.70
2019-05-11T14:10:09.487Z,17.70
2019-05-11T14:12:38.962Z,17.40
2019-05-11T14:15:08.771Z,18.00
2019-05-11T14:17:38.299Z,18.50
2019-05-11T14:20:09.066Z,18.50
2019-05-11T14:22:38.896Z,18.50
2019-05-11T14:25:08.473Z,18.50
2019-05-11T14:27:39.098Z,18.50
2019-05-11T14:30:09.939Z,18.30
2019-05-11T14:32:39.389Z,18.10
2019-05-11T14:35:11.978Z,18.10
2019-05-11T14:37:40.081Z,17.90
2019-05-11T14:40:09.664Z,17.60
2019-05-11T14:42:39.131Z,17.60
2019-05-11T14:45:09.148Z,17.70
2019-05-11T14:47:39.094Z,17.50
2019-05-11T14:50:09.828Z,17.40
2019-05-11T14:52:39.321Z,17.50
2019-05-11T14:55:08.784Z,17.30
2019-05-11T14:57:39.681Z,17.10
2019-05-11T15:00:10.526Z,16.90
2019-05-11T15:02:48.621Z,16.60
2019-05-11T15:05:18.505Z,16.20
2019-05-11T15:07:49.171Z,16.00
2019-05-11T15:10:19.462Z,15.80
2019-05-11T15:12:49.102Z,15.80
2019-05-11T15:15:19.040Z,15.70
2019-05-11T15:17:49.306Z,15.70
2019-05-11T15:20:19.429Z,15.70
2019-05-11T15:22:49.159Z,15.50
2019-05-11T15:25:19.724Z,15.40
2019-05-11T15:27:49.470Z,15.30
2019-05-11T15:30:19.287Z,15.30
2019-05-11T15:32:48.745Z,15.10
2019-05-11T15:35:18.837Z,15.00
2019-05-11T15:37:48.659Z,14.80
2019-05-11T15:40:19.136Z,14.70
2019-05-11T15:42:48.900Z,14.60
2019-05-11T15:45:19.146Z,14.50
2019-05-11T15:47:48.973Z,14.50
2019-05-11T15:50:19.445Z,14.50
2019-05-11T15:52:49.150Z,14.50
2019-05-11T15:55:20.557Z,14.40
2019-05-11T15:57:50.041Z,14.30
2019-05-11T16:00:19.909Z,14.20
2019-05-11T16:02:49.413Z,14.20
2019-05-11T16:05:19.725Z,14.10
2019-05-11T16:07:49.610Z,14.20
2019-05-11T16:10:19.234Z,14.30
2019-05-11T16:12:49.214Z,14.20
2019-05-11T16:15:19.719Z,14.20
2019-05-11T16:17:49.841Z,14.20
2019-05-11T16:20:19.536Z,14.10
2019-05-11T16:22:49.080Z,14.10
2019-05-11T16:25:19.829Z,14.00
2019-05-11T16:27:49.829Z,14.00
2019-05-11T16:30:21.711Z,14.00
2019-05-11T16:32:51.116Z,13.90
2019-05-11T16:35:20.613Z,13.90
2019-05-11T16:37:50.071Z,13.90
2019-05-11T16:40:20.793Z,13.80
2019-05-11T16:42:50.562Z,13.80
2019-05-11T16:45:23.521Z,13.80
2019-05-11T16:47:51.766Z,13.60
2019-05-11T16:50:21.258Z,13.70
2019-05-11T16:52:50.707Z,13.60
2019-05-11T16:55:20.232Z,13.60
2019-05-11T16:57:50.005Z,13.60
2019-05-11T17:00:20.509Z,13.60
2019-05-11T17:02:49.978Z,13.50
2019-05-11T17:05:26.553Z,13.60
2019-05-11T17:07:50.603Z,13.60
2019-05-11T17:10:20.196Z,13.50
2019-05-11T17:12:49.698Z,13.50
2019-05-11T17:15:19.354Z,13.40
2019-05-11T17:17:49.154Z,13.40
2019-05-11T17:20:19.166Z,13.40
2019-05-11T17:22:49.084Z,13.30
2019-05-11T17:25:19.446Z,13.20
2019-05-11T17:27:49.401Z,13.20
2019-05-11T17:30:19.608Z,13.20
2019-05-11T17:32:49.888Z,13.10
2019-05-11T17:35:19.708Z,13.10
2019-05-11T17:37:49.274Z,13.00
2019-05-11T17:40:22.741Z,13.00
2019-05-11T17:42:53.235Z,13.00
2019-05-11T17:45:21.076Z,13.00
2019-05-11T17:47:50.626Z,13.00
2019-05-11T17:50:20.103Z,13.00
2019-05-11T17:52:49.624Z,13.00
2019-05-11T17:55:19.117Z,13.00
2019-05-11T17:57:50.411Z,12.90
2019-05-11T18:00:20.445Z,12.80
2019-05-11T18:02:50.080Z,12.70
2019-05-11T18:05:19.561Z,12.60
2019-05-11T18:07:49.060Z,12.50
2019-05-11T18:10:19.064Z,12.60
2019-05-11T18:12:48.892Z,12.50
2019-05-11T18:15:19.049Z,12.50
2019-05-11T18:17:49.070Z,12.40
2019-05-11T18:20:21.916Z,12.40
2019-05-11T18:22:51.427Z,12.30
2019-05-11T18:25:20.989Z,12.30
2019-05-11T18:27:50.435Z,12.20
2019-05-11T18:30:20.031Z,12.20
2019-05-11T18:32:49.584Z,12.20
2019-05-11T18:35:19.814Z,12.30
2019-05-11T18:37:49.389Z,12.20
2019-05-11T18:40:19.057Z,12.20
2019-05-11T18:42:49.054Z,12.20
2019-05-11T18:45:19.157Z,12.20
2019-05-11T18:47:49.311Z,12.10
2019-05-11T18:50:30.598Z,12.00
2019-05-11T18:52:51.256Z,12.10
2019-05-11T18:55:20.721Z,12.10
2019-05-11T18:57:50.210Z,12.20
2019-05-11T19:00:22.998Z,12.20
2019-05-11T19:02:52.617Z,12.20
2019-05-11T19:05:22.089Z,12.20
2019-05-11T19:07:51.600Z,12.20
2019-05-11T19:10:21.068Z,12.20
2019-05-11T19:12:50.535Z,12.10
2019-05-11T19:15:20.036Z,12.10
2019-05-11T19:17:49.641Z,12.00
2019-05-11T19:20:19.241Z,11.90
2019-05-11T19:22:48.705Z,11.90
2019-05-11T19:25:18.494Z,11.80
2019-05-11T19:27:50.596Z,11.80
2019-05-11T19:30:20.388Z,11.80
2019-05-11T19:32:49.855Z,11.70
2019-05-11T19:35:21.197Z,11.60
2019-05-11T19:37:50.578Z,11.50
2019-05-11T19:40:20.075Z,11.50
2019-05-11T19:42:54.452Z,11.50
2019-05-11T19:45:24.225Z,11.40
2019-05-11T19:47:53.686Z,11.30
2019-05-11T19:50:23.192Z,11.30
2019-05-11T19:52:52.661Z,11.20
2019-05-11T19:55:22.207Z,11.20
2019-05-11T19:57:51.721Z,11.20
2019-05-11T20:00:21.403Z,11.20
2019-05-11T20:02:50.892Z,11.20
2019-05-11T20:05:20.370Z,11.10
2019-05-11T20:07:49.884Z,11.00
2019-05-11T20:10:19.428Z,11.00
2019-05-11T20:12:49.060Z,10.90
2019-05-11T20:15:19.180Z,11.00
2019-05-11T20:17:49.162Z,11.00
2019-05-11T20:20:19.000Z,10.80
2019-05-11T20:22:48.814Z,10.80
2019-05-11T20:25:19.288Z,10.70
2019-05-11T20:27:49.190Z,10.70
2019-05-11T20:30:19.104Z,10.60
2019-05-11T20:32:49.307Z,10.70
2019-05-11T20:35:19.030Z,10.70
2019-05-11T20:37:48.477Z,10.60
2019-05-11T20:40:18.444Z,10.50
2019-05-11T20:42:48.654Z,10.40
2019-05-11T20:45:19.013Z,10.40
2019-05-11T20:47:49.114Z,10.10
2019-05-11T20:50:18.900Z,9.90
2019-05-11T20:52:48.973Z,9.80
2019-05-11T20:55:18.650Z,9.60
2019-05-11T20:57:48.711Z,9.50
2019-05-11T21:00:18.939Z,9.40
2019-05-11T21:02:49.031Z,9.30
2019-05-11T21:05:18.877Z,9.40
2019-05-11T21:07:48.323Z,9.30
2019-05-11T21:10:18.011Z,9.30
2019-05-11T21:12:47.541Z,9.30
2019-05-11T21:15:17.238Z,9.20
2019-05-11T21:17:50.229Z,9.10
2019-05-11T21:20:18.334Z,9.10
2019-05-11T21:22:48.679Z,9.10
2019-05-11T21:25:18.400Z,9.10
2019-05-11T21:27:48.669Z,9.10
2019-05-11T21:30:18.668Z,9.10
2019-05-11T21:32:48.319Z,9.10
2019-05-11T21:35:19.227Z,9.10
2019-05-11T21:37:48.975Z,9.10
2019-05-11T21:40:18.515Z,9.00
2019-05-11T21:42:47.969Z,9.00
2019-05-11T21:45:18.325Z,9.00
2019-05-11T21:47:48.971Z,8.90
2019-05-11T21:50:19.344Z,9.00
2019-05-11T21:52:48.987Z,8.90
2019-05-11T21:55:18.481Z,9.00
2019-05-11T21:57:49.811Z,8.90
2019-05-11T22:00:20.418Z,8.90
2019-05-11T22:02:49.889Z,8.80
2019-05-11T22:05:20.926Z,8.90
2019-05-11T22:07:50.556Z,8.80
2019-05-11T22:10:20.107Z,8.80
2019-05-11T22:12:49.585Z,8.80
2019-05-11T22:15:19.049Z,8.80
2019-05-11T22:17:48.527Z,8.80
2019-05-11T22:20:18.410Z,8.70
2019-05-11T22:22:48.091Z,8.70
2019-05-11T22:25:18.295Z,8.80
2019-05-11T22:27:48.847Z,8.80
2019-05-11T22:30:18.788Z,8.70
2019-05-11T22:32:48.421Z,8.70
2019-05-11T22:35:18.496Z,8.70
2019-05-11T22:37:48.973Z,8.60
2019-05-11T22:40:18.910Z,8.60
2019-05-11T22:42:48.384Z,8.60
2019-05-11T22:45:18.617Z,8.50
2019-05-11T22:47:48.338Z,8.60
2019-05-11T22:50:18.684Z,8.50
2019-05-11T22:52:48.632Z,8.60
2019-05-11T22:55:18.784Z,8.50
2019-05-11T22:57:48.725Z,8.50
2019-05-11T23:00:27.928Z,8.50
2019-05-11T23:02:58.692Z,8.50
2019-05-11T23:05:29.912Z,8.40
2019-05-11T23:07:59.061Z,8.40
2019-05-11T23:10:28.531Z,8.50
2019-05-11T23:12:58.000Z,8.50
2019-05-11T23:15:27.463Z,8.50
2019-05-11T23:17:59.791Z,8.50
2019-05-11T23:20:30.086Z,8.40
2019-05-11T23:23:01.647Z,8.40
2019-05-11T23:25:30.323Z,8.40
2019-05-11T23:27:59.812Z,8.30
2019-05-11T23:30:29.389Z,8.30
2019-05-11T23:32:58.881Z,8.30
2019-05-11T23:35:28.739Z,8.20
2019-05-11T23:37:58.247Z,8.20
2019-05-11T23:40:28.453Z,8.20
2019-05-11T23:42:58.081Z,8.20
2019-05-11T23:45:28.031Z,8.10
2019-05-11T23:50:32.348Z,8.10
2019-05-11T23:53:06.400Z,8.10
2019-05-11T23:55:32.930Z,8.00
2019-05-11T23:58:02.380Z,8.00
